createdAt,value
2023-03-17T00:00:23.757Z,5.30
2023-03-17T00:03:18.048Z,11.27
2023-03-17T00:06:05.328Z,6.73
2023-03-17T00:08:51.394Z,7.03
2023-03-17T00:11:37.686Z,8.70
2023-03-17T00:14:24.387Z,6.10
2023-03-17T00:17:13.077Z,5.30
2023-03-17T00:20:00.850Z,5.70
2023-03-17T00:22:47.274Z,6.20
2023-03-17T00:25:34.328Z,5.43
2023-03-17T00:28:22.176Z,5.53
2023-03-17T00:31:14.501Z,5.23
2023-03-17T00:34:01.057Z,6.37
2023-03-17T00:36:50.206Z,5.37
2023-03-17T00:39:36.865Z,7.73
2023-03-17T00:42:23.326Z,6.00
2023-03-17T00:45:10.191Z,7.60
2023-03-17T00:47:57.031Z,5.77
2023-03-17T00:50:43.855Z,8.00
2023-03-17T00:53:32.015Z,7.30
2023-03-17T00:56:19.804Z,9.30
2023-03-17T00:59:06.873Z,4.83
2023-03-17T01:01:53.596Z,6.27
2023-03-17T01:04:40.140Z,6.90
2023-03-17T01:07:26.478Z,6.67
2023-03-17T01:10:15.634Z,26.37
2023-03-17T01:13:02.865Z,62.37
2023-03-17T01:15:49.672Z,7.83
2023-03-17T01:18:35.802Z,5.90
2023-03-17T01:21:22.578Z,7.60
2023-03-17T01:24:09.742Z,7.13
2023-03-17T01:26:57.490Z,5.20
2023-03-17T01:29:43.848Z,5.67
2023-03-17T01:32:30.566Z,4.73
2023-03-17T01:35:17.884Z,6.60
2023-03-17T01:38:05.844Z,3.37
2023-03-17T01:40:53.452Z,4.13
2023-03-17T01:43:41.620Z,5.73
2023-03-17T01:46:29.393Z,4.20
2023-03-17T01:49:19.330Z,5.53
2023-03-17T01:52:07.627Z,6.00
2023-03-17T01:54:56.699Z,5.47
2023-03-17T01:57:45.622Z,5.73
2023-03-17T02:00:34.288Z,5.00
2023-03-17T02:03:20.713Z,3.93
2023-03-17T02:06:07.314Z,8.80
2023-03-17T02:08:53.714Z,5.40
2023-03-17T02:11:40.670Z,6.37
2023-03-17T02:14:27.036Z,4.73
2023-03-17T02:17:14.950Z,7.20
2023-03-17T02:20:13.052Z,4.63
2023-03-17T02:23:01.877Z,8.03
2023-03-17T02:25:48.515Z,8.97
2023-03-17T02:28:35.573Z,8.73
2023-03-17T02:31:22.319Z,5.47
2023-03-17T02:34:08.583Z,7.77
2023-03-17T02:36:55.078Z,7.13
2023-03-17T02:39:43.164Z,5.57
2023-03-17T02:42:29.542Z,8.33
2023-03-17T02:45:15.783Z,6.33
2023-03-17T02:48:02.757Z,8.87
2023-03-17T02:50:48.978Z,6.83
2023-03-17T02:53:35.511Z,7.37
2023-03-17T02:56:23.710Z,6.23
2023-03-17T02:59:10.514Z,7.40
2023-03-17T03:01:57.264Z,7.43
2023-03-17T03:04:43.582Z,7.03
2023-03-17T03:07:30.077Z,6.03
2023-03-17T03:10:16.532Z,11.53
2023-03-17T03:13:04.168Z,9.37
2023-03-17T03:15:54.096Z,6.43
2023-03-17T03:18:40.544Z,6.77
2023-03-17T03:21:26.618Z,5.80
2023-03-17T03:24:12.917Z,6.50
2023-03-17T03:26:59.101Z,10.63
2023-03-17T03:29:47.102Z,14.53
2023-03-17T03:32:33.458Z,13.23
2023-03-17T03:35:20.014Z,11.87
2023-03-17T03:38:06.777Z,11.37
2023-03-17T03:40:53.004Z,11.37
2023-03-17T03:43:39.177Z,12.40
2023-03-17T03:46:27.138Z,12.27
2023-03-17T03:49:13.407Z,8.97
2023-03-17T03:51:59.728Z,8.80
2023-03-17T03:54:45.906Z,9.27
2023-03-17T03:57:32.123Z,10.43
2023-03-17T04:00:18.819Z,8.17
2023-03-17T04:03:06.677Z,6.63
2023-03-17T04:05:53.170Z,5.67
2023-03-17T04:08:39.259Z,9.23
2023-03-17T04:11:25.914Z,9.50
2023-03-17T04:14:12.685Z,6.23
2023-03-17T04:16:59.222Z,5.40
2023-03-17T04:19:47.102Z,7.83
2023-03-17T04:22:33.848Z,12.97
2023-03-17T04:25:20.178Z,5.03
2023-03-17T04:28:06.652Z,8.17
2023-03-17T04:30:53.276Z,4.50
2023-03-17T04:33:40.460Z,8.30
2023-03-17T04:36:28.269Z,6.07
2023-03-17T04:39:15.557Z,6.73
2023-03-17T04:42:02.360Z,6.33
2023-03-17T04:44:48.932Z,8.00
2023-03-17T04:47:35.398Z,9.27
2023-03-17T04:50:21.652Z,5.13
2023-03-17T04:53:09.228Z,4.23
2023-03-17T04:55:56.595Z,8.13
2023-03-17T04:58:43.072Z,8.03
2023-03-17T05:01:29.304Z,8.10
2023-03-17T05:04:28.832Z,9.43
2023-03-17T05:07:17.664Z,4.43
2023-03-17T05:10:06.634Z,8.30
2023-03-17T05:12:53.517Z,6.73
2023-03-17T05:15:39.883Z,5.93
2023-03-17T05:18:26.528Z,7.43
2023-03-17T05:21:12.912Z,12.53
2023-03-17T05:23:59.455Z,12.37
2023-03-17T05:26:47.218Z,13.10
2023-03-17T05:29:33.787Z,11.70
2023-03-17T05:32:20.190Z,9.20
2023-03-17T05:35:07.005Z,5.60
2023-03-17T05:37:53.477Z,3.60
2023-03-17T05:40:40.036Z,6.83
2023-03-17T05:43:28.058Z,6.40
2023-03-17T05:46:14.876Z,6.17
2023-03-17T05:49:01.599Z,9.63
2023-03-17T05:51:47.871Z,7.73
2023-03-17T05:54:34.112Z,7.47
2023-03-17T05:57:20.593Z,5.87
2023-03-17T06:00:09.483Z,8.17
2023-03-17T06:02:56.839Z,7.13
2023-03-17T06:05:43.345Z,7.00
2023-03-17T06:08:29.825Z,8.40
2023-03-17T06:11:16.149Z,8.37
2023-03-17T06:14:02.385Z,9.33
2023-03-17T06:16:50.162Z,10.67
2023-03-17T06:19:36.511Z,10.73
2023-03-17T06:22:22.619Z,9.73
2023-03-17T06:25:10.223Z,7.40
2023-03-17T06:27:57.724Z,6.77
2023-03-17T06:30:44.001Z,10.10
2023-03-17T06:33:32.702Z,9.33
2023-03-17T06:36:19.249Z,9.50
2023-03-17T06:39:06.340Z,8.77
2023-03-17T06:41:53.668Z,8.37
2023-03-17T06:44:39.990Z,6.73
2023-03-17T06:47:26.484Z,8.77
2023-03-17T06:50:14.376Z,5.80
2023-03-17T06:53:01.086Z,9.13
2023-03-17T06:55:48.225Z,6.57
2023-03-17T06:58:34.783Z,5.13
2023-03-17T07:01:21.142Z,6.07
2023-03-17T07:04:07.831Z,7.23
2023-03-17T07:06:56.084Z,5.30
2023-03-17T07:09:42.231Z,12.67
2023-03-17T07:12:28.967Z,5.17
2023-03-17T07:15:15.544Z,5.50
2023-03-17T07:18:02.292Z,5.50
2023-03-17T07:20:48.392Z,5.70
2023-03-17T07:23:36.268Z,5.70
2023-03-17T07:26:22.873Z,9.07
2023-03-17T07:29:10.229Z,4.87
2023-03-17T07:31:56.489Z,8.53
2023-03-17T07:34:43.045Z,9.17
2023-03-17T07:37:29.579Z,7.20
2023-03-17T07:40:18.488Z,6.43
2023-03-17T07:43:04.649Z,5.90
2023-03-17T07:45:51.101Z,5.40
2023-03-17T07:48:40.956Z,8.07
2023-03-17T07:51:28.284Z,16.20
2023-03-17T07:54:15.976Z,6.93
2023-03-17T07:57:04.250Z,6.77
2023-03-17T07:59:50.754Z,6.43
2023-03-17T08:02:38.437Z,5.03
2023-03-17T08:05:25.571Z,3.83
2023-03-17T08:08:12.709Z,4.70
2023-03-17T08:11:02.057Z,10.93
2023-03-17T08:13:50.187Z,8.77
2023-03-17T08:16:37.655Z,8.33
2023-03-17T08:19:24.379Z,4.17
2023-03-17T08:22:11.436Z,6.53
2023-03-17T08:24:58.741Z,5.10
2023-03-17T08:27:45.096Z,4.97
2023-03-17T08:30:33.868Z,4.57
2023-03-17T08:33:20.749Z,5.57
2023-03-17T08:36:09.363Z,11.93
2023-03-17T08:38:56.093Z,5.43
2023-03-17T08:41:42.368Z,6.43
2023-03-17T08:44:28.607Z,6.20
2023-03-17T08:47:16.424Z,5.57
2023-03-17T08:50:02.526Z,5.63
2023-03-17T08:52:49.831Z,9.60
2023-03-17T08:55:36.304Z,5.83
2023-03-17T08:58:22.618Z,5.83
2023-03-17T09:01:09.476Z,5.87
2023-03-17T09:03:57.230Z,4.63
2023-03-17T09:07:01.241Z,6.67
2023-03-17T09:09:49.085Z,8.73
2023-03-17T09:12:35.672Z,4.87
2023-03-17T09:15:22.140Z,5.73
2023-03-17T09:18:09.043Z,6.47
2023-03-17T09:20:56.895Z,4.57
2023-03-17T09:23:43.435Z,14.50
2023-03-17T09:26:30.043Z,21.03
2023-03-17T09:29:16.592Z,34.10
2023-03-17T09:32:03.173Z,42.07
2023-03-17T09:34:51.592Z,5.87
2023-03-17T09:37:39.627Z,6.33
2023-03-17T09:40:32.528Z,7.43
2023-03-17T09:43:26.057Z,9.40
2023-03-17T09:46:17.867Z,5.97
2023-03-17T09:49:08.537Z,7.13
2023-03-17T09:51:54.963Z,8.83
2023-03-17T09:54:42.767Z,8.63
2023-03-17T09:57:31.632Z,5.40
2023-03-17T10:00:19.266Z,5.43
2023-03-17T10:03:08.192Z,4.80
2023-03-17T10:05:55.176Z,5.70
2023-03-17T10:08:46.393Z,6.23
2023-03-17T10:11:38.706Z,7.50
2023-03-17T10:14:30.606Z,5.60
2023-03-17T10:17:18.922Z,4.90
2023-03-17T10:20:08.743Z,6.13
2023-03-17T10:22:58.148Z,4.87
2023-03-17T10:25:44.579Z,6.87
2023-03-17T10:28:35.830Z,3.30
2023-03-17T10:31:28.355Z,6.57
2023-03-17T10:34:15.992Z,5.17
2023-03-17T10:37:05.540Z,3.00
2023-03-17T10:39:52.829Z,3.97
2023-03-17T10:42:47.099Z,3.07
2023-03-17T10:45:37.347Z,3.17
2023-03-17T10:48:25.460Z,5.17
2023-03-17T10:51:15.270Z,4.27
2023-03-17T10:54:04.005Z,3.73
2023-03-17T10:56:51.732Z,3.17
2023-03-17T10:59:42.110Z,3.17
2023-03-17T11:02:36.085Z,5.53
2023-03-17T11:05:23.145Z,3.50
2023-03-17T11:08:12.642Z,3.47
2023-03-17T11:10:59.380Z,3.53
2023-03-17T11:13:45.977Z,5.80
2023-03-17T11:16:33.790Z,6.23
2023-03-17T11:19:23.836Z,5.03
2023-03-17T11:22:12.661Z,4.47
2023-03-17T11:25:04.421Z,4.83
2023-03-17T11:27:53.860Z,4.23
2023-03-17T11:30:42.965Z,5.10
2023-03-17T11:33:34.838Z,6.47
2023-03-17T11:36:29.209Z,3.67
2023-03-17T11:39:17.470Z,3.70
2023-03-17T11:42:08.464Z,4.83
2023-03-17T11:45:13.148Z,3.63
2023-03-17T11:48:07.801Z,2.83
2023-03-17T11:50:56.642Z,3.37
2023-03-17T11:53:52.722Z,3.60
2023-03-17T11:56:42.058Z,3.67
2023-03-17T11:59:31.568Z,3.77
2023-03-17T12:02:21.738Z,4.37
2023-03-17T12:05:10.117Z,4.17
2023-03-17T12:07:59.048Z,3.33
2023-03-17T12:10:49.632Z,3.43
2023-03-17T12:13:40.288Z,9.83
2023-03-17T12:16:29.490Z,13.57
2023-03-17T12:19:19.547Z,4.27
2023-03-17T12:22:08.261Z,4.03
2023-03-17T12:24:58.230Z,4.87
2023-03-17T12:27:51.310Z,5.50
2023-03-17T12:30:45.641Z,4.23
2023-03-17T12:33:35.004Z,5.07
2023-03-17T12:36:21.941Z,5.53
2023-03-17T12:39:10.339Z,7.63
2023-03-17T12:42:05.520Z,4.63
2023-03-17T12:45:01.718Z,4.50
2023-03-17T12:47:56.848Z,4.80
2023-03-17T12:50:51.047Z,5.37
2023-03-17T12:53:39.987Z,4.83
2023-03-17T12:56:28.520Z,6.90
2023-03-17T12:59:17.311Z,4.03
2023-03-17T13:02:15.457Z,3.10
2023-03-17T13:05:01.925Z,3.23
2023-03-17T13:07:49.344Z,5.90
2023-03-17T13:10:40.894Z,11.53
2023-03-17T13:13:41.800Z,4.67
2023-03-17T13:16:29.870Z,3.67
2023-03-17T13:19:20.231Z,4.80
2023-03-17T13:22:25.986Z,5.13
2023-03-17T13:25:17.599Z,7.07
2023-03-17T13:28:24.330Z,7.47
2023-03-17T13:31:12.513Z,2.70
2023-03-17T13:34:03.832Z,3.67
2023-03-17T13:36:59.173Z,3.57
2023-03-17T13:40:10.677Z,2.93
2023-03-17T13:43:09.502Z,5.27
2023-03-17T13:45:56.870Z,3.00
2023-03-17T13:48:43.039Z,4.33
2023-03-17T13:51:33.840Z,4.33
2023-03-17T13:54:30.663Z,2.30
2023-03-17T13:57:24.556Z,5.17
2023-03-17T14:00:21.059Z,3.87
2023-03-17T14:03:12.201Z,3.90
2023-03-17T14:05:59.017Z,4.53
2023-03-17T14:08:49.636Z,2.77
2023-03-17T14:11:39.264Z,3.17
2023-03-17T14:14:33.225Z,4.03
2023-03-17T14:17:21.231Z,7.03
2023-03-17T14:20:09.586Z,4.17
2023-03-17T14:22:56.892Z,5.53
2023-03-17T14:25:43.986Z,5.53
2023-03-17T14:28:32.556Z,4.67
2023-03-17T14:31:23.024Z,4.67
2023-03-17T14:34:13.772Z,3.53
2023-03-17T14:37:02.231Z,4.20
2023-03-17T14:39:49.307Z,2.27
2023-03-17T14:42:35.877Z,3.23
2023-03-17T14:45:28.478Z,3.50
2023-03-17T14:48:15.747Z,3.07
2023-03-17T14:51:05.691Z,3.80
2023-03-17T14:53:53.065Z,3.60
2023-03-17T14:56:41.921Z,2.87
2023-03-17T14:59:33.730Z,4.37
2023-03-17T15:02:24.133Z,2.90
2023-03-17T15:05:22.886Z,4.57
2023-03-17T15:08:27.789Z,6.03
2023-03-17T15:11:21.953Z,5.73
2023-03-17T15:14:16.187Z,2.17
2023-03-17T15:17:04.078Z,4.07
2023-03-17T15:19:52.688Z,10.97
2023-03-17T15:22:42.564Z,3.30
2023-03-17T15:25:34.439Z,2.67
2023-03-17T15:28:21.412Z,4.67
2023-03-17T15:31:12.874Z,4.30
2023-03-17T15:33:59.697Z,6.77
2023-03-17T15:36:47.671Z,6.37
2023-03-17T15:39:34.027Z,8.27
2023-03-17T15:42:20.957Z,5.27
2023-03-17T15:45:07.969Z,3.30
2023-03-17T15:47:55.499Z,4.47
2023-03-17T15:50:42.535Z,5.70
2023-03-17T15:53:32.092Z,7.67
2023-03-17T15:56:20.526Z,8.10
2023-03-17T15:59:07.006Z,2.60
2023-03-17T16:01:53.498Z,7.47
2023-03-17T16:04:40.138Z,9.93
2023-03-17T16:07:27.074Z,3.97
2023-03-17T16:10:18.241Z,4.43
2023-03-17T16:13:05.398Z,3.80
2023-03-17T16:15:54.748Z,6.10
2023-03-17T16:18:41.842Z,4.57
2023-03-17T16:21:29.885Z,7.93
2023-03-17T16:24:18.946Z,6.00
2023-03-17T16:27:12.042Z,5.57
2023-03-17T16:29:58.461Z,7.07
2023-03-17T16:32:44.983Z,6.83
2023-03-17T16:35:31.562Z,6.17
2023-03-17T16:38:20.419Z,7.13
2023-03-17T16:41:08.202Z,6.57
2023-03-17T16:44:00.069Z,6.57
2023-03-17T16:46:46.698Z,6.80
2023-03-17T16:49:32.995Z,5.70
2023-03-17T16:52:19.563Z,8.87
2023-03-17T16:55:08.118Z,5.77
2023-03-17T16:57:56.522Z,8.30
2023-03-17T17:00:44.871Z,13.70
2023-03-17T17:03:32.448Z,12.03
2023-03-17T17:06:19.671Z,10.07
2023-03-17T17:09:06.130Z,11.63
2023-03-17T17:11:52.514Z,6.93
2023-03-17T17:14:38.882Z,6.03
2023-03-17T17:17:26.524Z,4.90
2023-03-17T17:20:15.840Z,9.87
2023-03-17T17:23:03.174Z,10.53
2023-03-17T17:25:50.312Z,8.87
2023-03-17T17:28:39.421Z,9.67
2023-03-17T17:31:26.044Z,7.50
2023-03-17T17:34:13.535Z,13.73
2023-03-17T17:37:00.178Z,14.23
2023-03-17T17:39:46.218Z,104.17
2023-03-17T17:42:32.819Z,61.70
2023-03-17T17:45:20.261Z,87.10
2023-03-17T17:48:06.617Z,39.63
2023-03-17T17:50:54.869Z,41.93
2023-03-17T17:53:41.694Z,146.10
2023-03-17T17:56:28.130Z,41.60
2023-03-17T17:59:14.625Z,12.57
2023-03-17T18:02:01.253Z,16.67
2023-03-17T18:04:47.824Z,68.03
2023-03-17T18:07:35.825Z,171.10
2023-03-17T18:10:24.229Z,112.20
2023-03-17T18:13:10.759Z,58.53
2023-03-17T18:15:57.109Z,56.57
2023-03-17T18:18:45.756Z,42.00
2023-03-17T18:21:32.173Z,42.80
2023-03-17T18:24:19.976Z,46.43
2023-03-17T18:27:06.572Z,49.10
2023-03-17T18:29:54.272Z,29.57
2023-03-17T18:32:41.667Z,34.03
2023-03-17T18:35:29.857Z,31.00
2023-03-17T18:38:16.655Z,43.57
2023-03-17T18:41:04.721Z,35.50
2023-03-17T18:43:51.156Z,34.77
2023-03-17T18:46:37.446Z,31.60
2023-03-17T18:49:27.109Z,32.87
2023-03-17T18:52:13.883Z,30.63
2023-03-17T18:55:00.479Z,31.07
2023-03-17T18:57:48.309Z,43.83
2023-03-17T19:00:34.866Z,114.87
2023-03-17T19:03:21.122Z,92.33
2023-03-17T19:06:11.529Z,79.63
2023-03-17T19:08:58.073Z,57.07
2023-03-17T19:11:44.459Z,56.40
2023-03-17T19:14:32.367Z,31.90
2023-03-17T19:17:18.885Z,25.73
2023-03-17T19:20:06.110Z,30.80
2023-03-17T19:22:53.834Z,23.63
2023-03-17T19:25:40.126Z,12.67
2023-03-17T19:28:26.972Z,14.47
2023-03-17T19:31:14.640Z,14.80
2023-03-17T19:34:01.146Z,16.27
2023-03-17T19:36:48.242Z,14.47
2023-03-17T19:39:34.586Z,13.27
2023-03-17T19:42:21.173Z,10.67
2023-03-17T19:45:08.437Z,22.97
2023-03-17T19:47:56.157Z,19.83
2023-03-17T19:50:42.234Z,23.23
2023-03-17T19:53:28.819Z,25.73
2023-03-17T19:56:15.420Z,17.40
2023-03-17T19:59:02.274Z,23.57
2023-03-17T20:01:49.219Z,13.40
2023-03-17T20:04:37.448Z,9.20
2023-03-17T20:07:24.079Z,15.10
2023-03-17T20:10:11.876Z,13.60
2023-03-17T20:12:58.375Z,14.03
2023-03-17T20:15:45.202Z,25.03
2023-03-17T20:18:32.210Z,31.30
2023-03-17T20:21:20.044Z,37.40
2023-03-17T20:24:07.001Z,19.47
2023-03-17T20:26:54.773Z,18.63
2023-03-17T20:29:41.135Z,32.93
2023-03-17T20:32:27.733Z,21.63
2023-03-17T20:35:14.126Z,14.50
2023-03-17T20:38:02.175Z,11.60
2023-03-17T20:40:48.446Z,15.97
2023-03-17T20:43:36.344Z,15.00
2023-03-17T20:46:23.681Z,7.00
2023-03-17T20:49:10.456Z,8.93
2023-03-17T20:51:56.491Z,7.23
2023-03-17T20:54:45.672Z,6.60
2023-03-17T20:57:32.776Z,11.23
2023-03-17T21:00:20.345Z,7.47
2023-03-17T21:03:07.070Z,5.80
2023-03-17T21:05:54.452Z,12.50
2023-03-17T21:08:40.448Z,12.10
2023-03-17T21:11:28.381Z,13.30
2023-03-17T21:14:14.522Z,8.70
2023-03-17T21:17:01.303Z,18.30
2023-03-17T21:19:47.806Z,8.87
2023-03-17T21:22:36.320Z,11.13
2023-03-17T21:25:23.484Z,15.73
2023-03-17T21:28:11.683Z,12.40
2023-03-17T21:30:58.080Z,9.53
2023-03-17T21:33:44.521Z,12.70
2023-03-17T21:36:31.298Z,16.30
2023-03-17T21:39:17.772Z,9.93
2023-03-17T21:42:05.316Z,11.73
2023-03-17T21:44:53.751Z,16.53
2023-03-17T21:47:41.270Z,16.80
2023-03-17T21:50:27.481Z,10.23
2023-03-17T21:53:15.831Z,14.50
2023-03-17T21:56:02.129Z,6.97
2023-03-17T21:58:49.322Z,9.20
2023-03-17T22:01:37.033Z,12.20
2023-03-17T22:04:23.401Z,14.40
2023-03-17T22:07:09.967Z,11.10
2023-03-17T22:09:57.859Z,11.13
2023-03-17T22:12:44.184Z,9.60
2023-03-17T22:15:30.574Z,11.17
2023-03-17T22:18:18.404Z,9.60
2023-03-17T22:21:05.496Z,12.87
2023-03-17T22:23:51.907Z,8.57
2023-03-17T22:26:38.141Z,7.00
2023-03-17T22:29:24.465Z,5.07
2023-03-17T22:32:11.038Z,8.87
2023-03-17T22:34:58.778Z,9.03
2023-03-17T22:37:45.070Z,4.90
2023-03-17T22:40:31.599Z,7.93
2023-03-17T22:43:18.094Z,12.13
2023-03-17T22:46:04.352Z,6.07
2023-03-17T22:48:51.037Z,9.20
2023-03-17T22:51:41.020Z,6.20
2023-03-17T22:54:27.741Z,9.70
2023-03-17T22:57:14.235Z,9.03
2023-03-17T23:00:00.489Z,4.03
2023-03-17T23:02:47.426Z,4.47
2023-03-17T23:05:33.831Z,5.40
2023-03-17T23:08:22.102Z,4.87
2023-03-17T23:11:10.601Z,4.90
2023-03-17T23:13:57.416Z,7.53
2023-03-17T23:16:45.057Z,5.90
2023-03-17T23:19:31.912Z,8.00
2023-03-17T23:22:18.367Z,5.00
2023-03-17T23:25:07.467Z,8.53
2023-03-17T23:27:54.094Z,8.33
2023-03-17T23:30:41.390Z,7.57
2023-03-17T23:33:28.416Z,6.20
2023-03-17T23:36:15.614Z,6.23
2023-03-17T23:39:03.374Z,6.83
2023-03-17T23:41:51.301Z,4.87
2023-03-17T23:44:37.733Z,5.97
2023-03-17T23:47:24.645Z,6.50
2023-03-17T23:50:12.338Z,6.43
2023-03-17T23:52:59.141Z,4.30
2023-03-17T23:55:45.453Z,5.90
2023-03-17T23:58:33.348Z,7.13
